Time;durP1;ratioP1;P1;durP2;ratioP2;P2;SDS_P1;SDS_P2;PMS_P1;PMS_P2;Temp;Humidity;BMP_temperature;BMP_pressure;BME280_temperature;BME280_humidity;BME280_pressure;Samples;Min_cycle;Max_cycle;Signal;HPM_P1;HPM_P2
2022/07/11 00:02:11;;;;;;;1.75;0.82;;;;;;;18.43;93.11;102041.66;20958884;28;20041;-74
2022/07/11 00:12:13;;;;;;;0.93;0.60;;;;;;;18.52;93.36;102053.59;20942673;28;20496;-75
2022/07/11 00:22:14;;;;;;;0.98;0.80;;;;;;;18.52;93.42;102053.59;20957493;28;20114;-75
2022/07/11 00:32:16;;;;;;;1.48;0.90;;;;;;;18.52;93.29;102050.91;20962286;28;20409;-74
2022/07/11 00:42:18;;;;;;;0.93;0.80;;;;;;;18.37;93.62;102034.88;20972859;28;20048;-74
2022/07/11 00:52:19;;;;;;;1.02;0.70;;;;;;;18.51;93.18;102049.16;20973908;28;20044;-75
2022/07/11 01:02:21;;;;;;;1.75;0.77;;;;;;;18.52;93.49;102037.41;20971306;28;20123;-75
2022/07/11 01:12:24;;;;;;;0.90;0.70;;;;;;;18.37;93.37;102012.47;20972060;28;20048;-76
2022/07/11 01:22:28;;;;;;;1.77;0.90;;;;;;;18.51;93.42;102030.28;20969318;28;20048;-75
2022/07/11 01:32:29;;;;;;;0.65;0.60;;;;;;;18.51;93.42;102031.16;20937279;28;20052;-74
2022/07/11 01:42:31;;;;;;;1.15;0.60;;;;;;;18.51;93.45;102024.91;20969786;28;20048;-75
2022/07/11 01:52:32;;;;;;;0.80;0.70;;;;;;;18.50;93.32;102029.44;20966783;28;20051;-74
2022/07/11 02:02:34;;;;;;;0.95;0.68;;;;;;;18.47;93.49;102023.41;20949892;28;20099;-74
2022/07/11 02:12:36;;;;;;;0.90;0.68;;;;;;;18.50;93.48;102028.56;20967453;28;20118;-75
2022/07/11 02:22:37;;;;;;;1.13;0.73;;;;;;;18.44;93.58;102015.53;20948425;28;20412;-75
2022/07/11 02:32:39;;;;;;;1.70;0.70;;;;;;;18.32;93.48;102004.69;20953621;28;20570;-75
2022/07/11 02:42:41;;;;;;;0.85;0.60;;;;;;;18.27;93.42;101996.09;20964742;28;20055;-75
2022/07/11 02:52:43;;;;;;;0.73;0.60;;;;;;;18.49;93.66;102032.25;20964680;28;20447;-75
2022/07/11 03:02:45;;;;;;;0.75;0.75;;;;;;;18.42;93.74;102015.69;20963181;28;20045;-75
2022/07/11 03:12:47;;;;;;;0.80;0.57;;;;;;;18.50;93.72;102023.19;20962186;28;20052;-74
2022/07/11 03:22:49;;;;;;;0.80;0.70;;;;;;;18.49;93.80;102024.16;20963697;28;20041;-75
2022/07/11 03:32:50;;;;;;;0.60;0.43;;;;;;;18.49;93.88;102026.84;20947882;28;20048;-75
2022/07/11 03:42:52;;;;;;;0.77;0.75;;;;;;;18.49;93.84;102024.16;20960515;28;20076;-75
2022/07/11 03:52:53;;;;;;;0.70;0.50;;;;;;;18.48;94.01;102027.81;20962879;28;20056;-75
2022/07/11 04:02:55;;;;;;;0.50;0.50;;;;;;;18.40;94.27;102012.22;20960022;28;20131;-74
2022/07/11 04:12:57;;;;;;;0.73;0.60;;;;;;;18.26;93.93;102003.28;20944482;28;20103;-74
2022/07/11 04:22:58;;;;;;;1.20;0.50;;;;;;;18.11;94.20;101964.84;20907406;28;20033;-75
2022/07/11 04:33:01;;;;;;;0.50;0.50;;;;;;;18.34;94.26;102018.94;20925524;28;20045;-75
2022/07/11 04:43:09;;;;;;;0.80;0.60;;;;;;;18.48;94.20;102033.22;20873049;28;20457;-75
2022/07/11 04:53:12;;;;;;;0.77;0.57;;;;;;;18.28;94.19;102008.59;20879624;28;20041;-74
2022/07/11 05:03:15;;;;;;;0.55;0.55;;;;;;;18.46;94.16;102040.56;20868747;28;20402;-74
2022/07/11 05:13:16;;;;;;;0.57;0.57;;;;;;;18.49;94.66;102052.00;20837783;28;20384;-74
2022/07/11 05:23:18;;;;;;;1.33;0.60;;;;;;;18.49;94.87;102060.09;20799034;28;20076;-73
2022/07/11 05:33:20;;;;;;;1.23;0.70;;;;;;;18.49;95.27;102064.59;20789690;28;20063;-74
2022/07/11 05:43:23;;;;;;;1.13;1.02;;;;;;;18.50;95.77;102071.72;20855094;28;20059;-74
2022/07/11 05:53:24;;;;;;;0.75;0.55;;;;;;;18.51;96.21;102079.72;20865183;28;20100;-74
2022/07/11 06:03:26;;;;;;;0.73;0.60;;;;;;;18.51;96.20;102076.13;20862067;28;20055;-74
2022/07/11 06:13:29;;;;;;;0.88;0.70;;;;;;;18.50;96.50;102078.00;20850949;28;20057;-74
2022/07/11 06:23:31;;;;;;;0.70;0.60;;;;;;;18.53;96.40;102074.19;20852064;28;20048;-74
2022/07/11 06:33:34;;;;;;;1.40;0.50;;;;;;;18.52;96.33;102075.16;20853651;28;20114;-74
2022/07/11 06:43:36;;;;;;;0.60;0.60;;;;;;;18.52;96.39;102070.66;20849177;28;20048;-74
2022/07/11 06:53:37;;;;;;;0.60;0.60;;;;;;;18.51;96.60;102073.44;20853175;28;20051;-75
2022/07/11 07:03:39;;;;;;;1.67;0.60;;;;;;;18.52;96.60;102059.84;20854890;28;20383;-74
2022/07/11 07:13:41;;;;;;;0.45;0.45;;;;;;;18.53;96.55;102077.75;20850241;28;20064;-74
2022/07/11 07:23:44;;;;;;;1.42;0.70;;;;;;;18.54;96.53;102084.88;20850316;28;20056;-75
2022/07/11 07:33:46;;;;;;;1.00;0.70;;;;;;;18.56;96.50;102084.78;20856098;28;20099;-75
2022/07/11 07:43:49;;;;;;;0.77;0.50;;;;;;;18.58;96.38;102080.13;20852184;28;20049;-74
2022/07/11 07:53:50;;;;;;;0.73;0.50;;;;;;;18.60;96.81;102085.41;20865025;28;20141;-74
2022/07/11 08:03:57;;;;;;;0.68;0.50;;;;;;;18.61;97.00;102095.22;20864337;28;20107;-74
2022/07/11 08:13:59;;;;;;;0.40;0.40;;;;;;;18.60;96.98;102105.16;20781865;28;20132;-74
2022/07/11 08:24:02;;;;;;;0.70;0.50;;;;;;;18.58;97.06;102090.94;20787548;28;20119;-74
2022/07/11 08:34:03;;;;;;;0.95;0.50;;;;;;;18.46;97.39;102064.81;20781896;28;20108;-74
2022/07/11 08:44:06;;;;;;;0.55;0.40;;;;;;;18.60;97.71;102099.75;20789437;28;20441;-75
2022/07/11 08:54:10;;;;;;;2.03;0.40;;;;;;;18.63;97.81;102091.44;20783815;28;20473;-76
2022/07/11 09:04:15;;;;;;;0.70;0.25;;;;;;;18.65;98.22;102094.91;20860266;28;20512;-74
2022/07/11 09:14:22;;;;;;;0.40;0.30;;;;;;;18.65;98.33;102085.94;20858347;28;20057;-75
2022/07/11 09:35:02;;;;;;;0.65;0.30;;;;;;;18.65;98.65;102094.91;20780133;28;20045;-75
2022/07/11 09:45:13;;;;;;;0.50;0.40;;;;;;;18.66;98.59;102102.00;20795220;28;20387;-75
2022/07/11 09:55:14;;;;;;;0.40;0.22;;;;;;;18.57;98.61;102080.22;20878400;28;20052;-75
2022/07/11 10:05:36;;;;;;;0.50;0.40;;;;;;;18.67;98.38;102109.13;20874728;28;20164;-75
2022/07/11 10:15:38;;;;;;;0.75;0.30;;;;;;;18.68;98.39;102110.84;20864184;28;20450;-75
2022/07/11 10:25:41;;;;;;;0.40;0.40;;;;;;;18.67;98.51;102105.56;20856160;28;20048;-74
2022/07/11 10:35:45;;;;;;;0.98;0.40;;;;;;;18.68;98.43;102118.06;20856775;28;20041;-75
2022/07/11 10:46:04;;;;;;;1.23;0.30;;;;;;;18.68;98.36;102108.16;20867996;28;20060;-75
2022/07/11 10:56:30;;;;;;;0.40;0.30;;;;;;;18.68;98.39;102118.94;20876699;28;20486;-75
2022/07/11 11:06:57;;;;;;;;;;;;;;;18.68;98.43;102112.66;20871119;28;20136;-75
2022/07/11 11:17:34;;;;;;;0.30;0.30;;;;;;;18.65;98.40;102120.97;20867970;28;19921;-75
2022/07/11 11:27:36;;;;;;;0.60;0.20;;;;;;;18.68;98.25;102127.03;20864092;28;20128;-75
2022/07/11 11:37:37;;;;;;;0.63;0.30;;;;;;;18.68;98.16;102120.75;20859130;28;20499;-75
2022/07/11 11:47:48;;;;;;;0.30;0.30;;;;;;;18.69;98.30;102130.56;20875904;28;20493;-75
2022/07/11 11:57:50;;;;;;;0.20;0.20;;;;;;;18.71;98.36;102117.84;20869326;28;20120;-75
2022/07/11 12:07:53;;;;;;;0.20;0.20;;;;;;;18.70;98.08;102119.69;20866329;28;20049;-76
2022/07/11 12:18:04;;;;;;;0.20;0.20;;;;;;;18.65;97.97;102113.78;20848494;28;20124;-75
2022/07/11 12:28:07;;;;;;;0.50;0.20;;;;;;;18.73;98.26;102115.03;20834611;28;20053;-75
2022/07/11 12:38:09;;;;;;;0.82;0.20;;;;;;;18.74;98.17;102119.47;20879425;28;20053;-76
2022/07/11 12:48:11;;;;;;;0.30;0.20;;;;;;;18.65;98.32;102100.28;20877991;28;20049;-75
2022/07/11 12:58:13;;;;;;;0.28;0.20;;;;;;;18.68;98.11;102110.84;20889170;28;20493;-76
2022/07/11 13:18:45;;;;;;;0.20;0.20;;;;;;;18.76;98.60;102125.59;20881530;28;20053;-76
2022/07/11 13:28:48;;;;;;;2.10;0.30;;;;;;;18.70;98.38;102119.69;20878782;28;20060;-76
2022/07/11 13:38:49;;;;;;;0.13;0.10;;;;;;;18.75;98.35;102118.50;20880265;28;20053;-76
2022/07/11 13:48:51;;;;;;;0.22;0.20;;;;;;;18.75;98.50;102115.78;20871745;28;20053;-75
2022/07/11 13:58:53;;;;;;;0.70;0.25;;;;;;;18.76;98.64;102117.50;20848913;28;20056;-76
2022/07/11 14:08:54;;;;;;;0.22;0.20;;;;;;;18.76;98.52;102125.59;20804405;28;20571;-76
2022/07/11 14:18:56;;;;;;;0.20;0.13;;;;;;;18.76;98.50;102121.06;20865023;28;20067;-76
2022/07/11 14:28:58;;;;;;;0.85;0.30;;;;;;;18.59;98.71;102092.66;20857581;28;20053;-75
2022/07/11 14:39:05;;;;;;;0.10;0.10;;;;;;;18.77;98.58;102119.22;20815458;28;20045;-76
2022/07/11 14:49:08;;;;;;;0.15;0.15;;;;;;;18.75;99.12;102119.34;20790937;28;20048;-75
2022/07/11 14:59:10;;;;;;;0.55;0.35;;;;;;;18.80;99.71;102127.09;20833736;28;20401;-76
2022/07/11 15:19:31;;;;;;;2.13;0.70;;;;;;;18.80;100.00;102127.97;20771762;28;20045;-76
2022/07/11 15:29:33;;;;;;;3.58;0.77;;;;;;;18.81;100.00;102127.00;20845613;28;20057;-76
2022/07/11 15:39:35;;;;;;;3.33;1.10;;;;;;;18.79;100.00;102131.66;20851874;28;20439;-75
2022/07/11 15:49:36;;;;;;;7.25;3.33;;;;;;;18.80;100.00;102130.69;20848811;28;20060;-75
2022/07/11 15:59:38;;;;;;;5.50;2.90;;;;;;;18.82;100.00;102117.06;20849022;28;20044;-75
2022/07/11 16:09:39;;;;;;;4.13;2.30;;;;;;;18.81;100.00;102107.25;20831193;28;20045;-75
2022/07/11 16:19:43;;;;;;;2.92;1.88;;;;;;;18.63;100.00;102071.69;20767972;28;20786;-75
2022/07/11 16:29:44;;;;;;;2.80;1.63;;;;;;;18.83;100.00;102111.56;20790832;28;20076;-76
2022/07/11 16:50:11;;;;;;;1.45;1.23;;;;;;;18.86;100.00;102115.84;20905554;28;20401;-76
2022/07/11 17:00:13;;;;;;;2.35;1.10;;;;;;;18.86;100.00;102121.25;20904286;28;20103;-76
2022/07/11 17:10:15;;;;;;;2.25;1.08;;;;;;;18.84;100.00;102121.38;20875809;28;20128;-76
2022/07/11 17:20:17;;;;;;;2.47;0.80;;;;;;;18.83;100.00;102132.28;20863468;28;20056;-76
2022/07/11 17:30:18;;;;;;;1.83;0.80;;;;;;;18.83;100.00;102132.28;20880420;28;20116;-76
2022/07/11 17:40:20;;;;;;;0.80;0.80;;;;;;;18.82;100.00;102133.25;20882939;28;20044;-77
2022/07/11 17:50:22;;;;;;;2.13;0.60;;;;;;;18.81;100.00;102131.53;20883749;28;20084;-76
2022/07/11 18:00:24;;;;;;;1.08;0.55;;;;;;;18.66;100.00;102115.50;20885599;28;20045;-76
2022/07/11 18:10:26;;;;;;;1.20;0.70;;;;;;;18.80;100.00;102135.19;20885144;28;20045;-77
2022/07/11 18:20:27;;;;;;;0.77;0.50;;;;;;;18.81;100.00;102139.63;20880217;28;20045;-77
2022/07/11 18:30:29;;;;;;;1.08;0.43;;;;;;;18.80;100.00;102133.38;20881256;28;20055;-76
2022/07/11 18:50:51;;;;;;;0.73;0.43;;;;;;;18.68;100.00;102135.13;20881253;28;20056;-76
2022/07/11 19:00:52;;;;;;;0.50;0.47;;;;;;;18.80;100.00;102143.28;20929047;28;20102;-76
2022/07/11 19:10:54;;;;;;;0.82;0.50;;;;;;;18.80;100.00;102148.69;20939648;28;20048;-76
2022/07/11 19:20:56;;;;;;;1.45;0.50;;;;;;;18.68;100.00;102126.16;20961321;28;20046;-76
2022/07/11 19:30:57;;;;;;;0.52;0.50;;;;;;;18.77;100.00;102138.13;20964048;28;20127;-76
2022/07/11 19:40:59;;;;;;;0.60;0.47;;;;;;;18.56;100.00;102125.22;20963209;28;20055;-76
2022/07/11 19:51:01;;;;;;;0.45;0.45;;;;;;;18.65;100.00;102140.75;20978909;28;20401;-76
2022/07/11 20:01:03;;;;;;;0.80;0.45;;;;;;;18.72;100.00;102156.47;20971645;28;20121;-77
2022/07/11 20:11:05;;;;;;;1.42;0.63;;;;;;;18.77;100.00;102157.84;20966280;28;20044;-76
2022/07/11 20:21:07;;;;;;;0.40;0.40;;;;;;;18.77;100.00;102159.69;20877326;28;20555;-76
2022/07/11 20:31:08;;;;;;;0.40;0.40;;;;;;;18.76;100.00;102169.63;20893781;28;20044;-77
2022/07/11 20:41:10;;;;;;;0.93;0.60;;;;;;;18.75;100.00;102176.00;20893578;28;20532;-76
2022/07/11 20:51:12;;;;;;;0.50;0.50;;;;;;;18.75;100.00;102184.06;20972238;28;20049;-76
2022/07/11 21:01:14;;;;;;;1.02;0.60;;;;;;;18.75;100.00;102175.13;20955762;28;20044;-76
2022/07/11 21:11:15;;;;;;;0.50;0.50;;;;;;;18.59;100.00;102157.38;20972919;28;20080;-75
2022/07/11 21:21:17;;;;;;;0.75;0.40;;;;;;;18.61;100.00;102160.81;20972675;28;20052;-76
2022/07/11 21:31:19;;;;;;;0.50;0.50;;;;;;;18.73;100.00;102172.53;20972056;28;20049;-76
2022/07/11 21:41:20;;;;;;;0.75;0.50;;;;;;;18.74;100.00;102189.59;20968113;28;20057;-76
2022/07/11 21:51:22;;;;;;;0.47;0.47;;;;;;;18.55;100.00;102150.44;20969712;28;20064;-76
2022/07/11 22:01:23;;;;;;;0.50;0.50;;;;;;;18.73;100.00;102179.78;20956819;28;20098;-77
2022/07/11 22:11:25;;;;;;;0.75;0.50;;;;;;;18.53;100.00;102153.28;20964556;28;20405;-77
2022/07/11 22:21:26;;;;;;;0.80;0.50;;;;;;;18.70;100.00;102187.13;20967909;28;20052;-78
2022/07/11 22:31:29;;;;;;;0.50;0.50;;;;;;;18.57;100.00;102169.22;20966749;28;22436;-76
2022/07/11 22:41:30;;;;;;;0.95;0.60;;;;;;;18.70;100.00;102192.53;20964758;28;20056;-76
2022/07/11 22:51:32;;;;;;;0.60;0.60;;;;;;;18.69;100.00;102185.41;20965363;28;20040;-76
2022/07/11 23:01:34;;;;;;;0.52;0.52;;;;;;;18.68;99.90;102189.06;20948428;28;20040;-76
2022/07/11 23:11:35;;;;;;;0.85;0.50;;;;;;;18.69;99.84;102200.72;20964111;28;20496;-76
2022/07/11 23:21:37;;;;;;;0.40;0.40;;;;;;;18.58;99.59;102174.53;20962323;28;20048;-76
2022/07/11 23:31:38;;;;;;;0.30;0.30;;;;;;;18.68;99.40;102193.59;20945887;28;20106;-76
2022/07/11 23:41:40;;;;;;;0.50;0.50;;;;;;;18.62;99.20;102173.34;20960612;28;20382;-76
2022/07/11 23:51:43;;;;;;;0.40;0.40;;;;;;;18.66;98.86;102174.84;20962600;28;20573;-76
